createdAt,value
2018-03-11T00:03:17.143Z,10.93
2018-03-11T00:08:15.416Z,7.87
2018-03-11T00:13:13.374Z,5.10
2018-03-11T00:18:13.663Z,4.87
2018-03-11T00:23:11.607Z,8.23
2018-03-11T00:28:10.081Z,4.70
2018-03-11T00:33:07.389Z,4.40
2018-03-11T00:38:11.527Z,4.60
2018-03-11T00:43:09.544Z,3.83
2018-03-11T00:48:13.362Z,3.90
2018-03-11T00:53:11.395Z,4.63
2018-03-11T00:58:14.655Z,4.13
2018-03-11T01:03:11.876Z,4.73
2018-03-11T01:08:12.035Z,5.43
2018-03-11T01:13:09.267Z,3.70
2018-03-11T01:18:13.994Z,3.43
2018-03-11T01:23:11.293Z,5.73
2018-03-11T01:28:11.700Z,6.77
2018-03-11T01:33:08.914Z,6.70
2018-03-11T01:38:09.816Z,4.80
2018-03-11T01:43:07.028Z,6.03
2018-03-11T01:48:09.972Z,4.53
2018-03-11T01:53:08.051Z,4.83
2018-03-11T01:58:08.743Z,6.83
2018-03-11T02:03:06.677Z,7.90
2018-03-11T02:08:06.915Z,8.83
2018-03-11T02:13:04.181Z,8.70
2018-03-11T02:18:02.516Z,10.17
2018-03-11T02:22:59.740Z,7.37
2018-03-11T02:28:01.297Z,7.67
2018-03-11T02:32:58.597Z,7.97
2018-03-11T02:37:59.775Z,7.13
2018-03-11T02:42:57.068Z,9.90
2018-03-11T02:48:00.523Z,9.90
2018-03-11T02:52:57.710Z,5.57
2018-03-11T02:58:01.791Z,6.30
2018-03-11T03:02:59.092Z,6.67
2018-03-11T03:08:03.630Z,5.97
2018-03-11T03:13:00.857Z,8.50
2018-03-11T03:17:59.101Z,7.93
2018-03-11T03:22:57.378Z,10.20
2018-03-11T03:28:00.046Z,6.27
2018-03-11T03:32:57.333Z,12.77
2018-03-11T03:38:01.217Z,4.63
2018-03-11T03:42:58.612Z,4.67
2018-03-11T03:48:10.516Z,3.20
2018-03-11T03:53:07.823Z,4.07
2018-03-11T03:58:09.725Z,3.40
2018-03-11T04:03:06.961Z,6.13
2018-03-11T04:08:07.529Z,11.07
2018-03-11T04:13:04.761Z,9.37
2018-03-11T04:18:09.472Z,10.23
2018-03-11T04:23:06.683Z,12.00
2018-03-11T04:28:07.684Z,11.00
2018-03-11T04:33:05.641Z,4.73
2018-03-11T04:38:03.909Z,4.83
2018-03-11T04:43:01.185Z,3.80
2018-03-11T04:47:59.413Z,7.57
2018-03-11T04:52:56.736Z,13.13
2018-03-11T04:58:00.077Z,17.00
2018-03-11T05:02:57.352Z,14.93
2018-03-11T05:07:58.239Z,73.03
2018-03-11T05:12:56.538Z,108.10
2018-03-11T05:18:04.437Z,98.80
2018-03-11T05:23:01.728Z,59.37
2018-03-11T05:28:13.282Z,42.97
2018-03-11T05:33:10.493Z,35.73
2018-03-11T05:38:18.478Z,25.63
2018-03-11T05:43:15.664Z,22.73
2018-03-11T05:48:13.877Z,59.53
2018-03-11T05:53:11.060Z,62.47
2018-03-11T05:58:18.585Z,62.80
2018-03-11T06:03:15.713Z,50.43
2018-03-11T06:08:13.988Z,34.37
2018-03-11T06:13:11.438Z,33.33
2018-03-11T06:18:12.366Z,6.47
2018-03-11T06:23:09.390Z,3.23
2018-03-11T06:28:12.239Z,8.70
2018-03-11T06:33:09.417Z,6.47
2018-03-11T06:38:07.600Z,7.97
2018-03-11T06:43:05.045Z,5.47
2018-03-11T06:48:03.338Z,4.30
2018-03-11T06:53:00.637Z,9.17
2018-03-11T06:58:01.600Z,3.47
2018-03-11T07:02:58.742Z,2.63
2018-03-11T07:07:57.075Z,8.57
2018-03-11T07:12:54.399Z,5.37
2018-03-11T07:17:58.915Z,4.50
2018-03-11T07:22:56.194Z,4.03
2018-03-11T07:27:57.198Z,3.83
2018-03-11T07:32:55.138Z,5.33
2018-03-11T07:37:58.989Z,10.37
2018-03-11T07:42:56.272Z,6.67
2018-03-11T07:47:55.817Z,17.03
2018-03-11T07:52:53.045Z,20.03
2018-03-11T07:57:53.786Z,14.27
2018-03-11T08:02:51.105Z,5.47
2018-03-11T08:07:50.766Z,5.70
2018-03-11T08:12:47.985Z,12.10
2018-03-11T08:17:56.072Z,11.30
2018-03-11T08:22:53.190Z,10.53
2018-03-11T08:27:53.924Z,9.13
2018-03-11T08:32:51.162Z,9.60
2018-03-11T08:37:58.719Z,7.60
2018-03-11T08:42:56.184Z,7.43
2018-03-11T08:48:08.508Z,10.13
2018-03-11T08:53:05.789Z,7.77
2018-03-11T08:58:06.014Z,21.83
2018-03-11T09:03:03.170Z,17.97
2018-03-11T09:08:06.769Z,21.83
2018-03-11T09:13:03.804Z,25.13
2018-03-11T09:18:05.433Z,17.43
2018-03-11T09:23:03.326Z,18.50
2018-03-11T09:28:13.820Z,10.80
2018-03-11T09:33:11.125Z,7.87
2018-03-11T09:38:20.385Z,11.83
2018-03-11T09:43:18.330Z,10.10
2018-03-11T09:48:23.018Z,13.47
2018-03-11T09:53:20.218Z,15.43
2018-03-11T09:58:17.456Z,8.63
2018-03-11T10:03:14.834Z,13.87
2018-03-11T10:08:28.790Z,3.03
2018-03-11T10:13:25.991Z,4.70
2018-03-11T10:18:24.334Z,9.10
2018-03-11T10:23:21.653Z,8.07
2018-03-11T10:28:24.396Z,14.33
2018-03-11T10:33:21.533Z,10.83
2018-03-11T10:38:21.945Z,10.23
2018-03-11T10:43:19.216Z,12.63
2018-03-11T10:48:27.016Z,11.97
2018-03-11T10:53:24.188Z,6.87
2018-03-11T10:58:23.341Z,10.23
2018-03-11T11:03:26.541Z,9.67
2018-03-11T11:08:31.769Z,8.97
2018-03-11T11:13:29.078Z,6.90
2018-03-11T11:18:32.270Z,5.57
2018-03-11T11:23:30.021Z,9.93
2018-03-11T11:28:33.195Z,8.60
2018-03-11T11:33:30.442Z,13.67
2018-03-11T11:38:33.944Z,8.47
2018-03-11T11:43:31.140Z,6.70
2018-03-11T11:48:36.230Z,6.63
2018-03-11T11:53:33.462Z,11.53
2018-03-11T11:58:34.682Z,8.20
2018-03-11T12:03:32.026Z,11.30
2018-03-11T12:08:35.766Z,10.07
2018-03-11T12:13:33.134Z,11.60
2018-03-11T12:18:30.423Z,8.73
2018-03-11T12:23:28.281Z,9.23
2018-03-11T12:28:32.153Z,10.63
2018-03-11T12:33:29.417Z,8.23
2018-03-11T12:38:32.926Z,7.03
2018-03-11T12:43:30.130Z,5.90
2018-03-11T12:48:31.295Z,6.43
2018-03-11T12:53:28.545Z,8.57
2018-03-11T12:58:29.078Z,7.30
2018-03-11T13:03:26.376Z,8.30
2018-03-11T13:08:25.060Z,6.97
2018-03-11T13:13:22.943Z,5.73
2018-03-11T13:18:44.438Z,7.90
2018-03-11T13:23:41.711Z,9.13
2018-03-11T13:28:50.226Z,5.67
2018-03-11T13:39:41.154Z,9.10
2018-03-11T13:44:38.574Z,7.60
2018-03-11T13:49:35.618Z,9.53
2018-03-11T13:54:33.873Z,7.13
2018-03-11T13:59:31.052Z,7.27
2018-03-11T14:04:29.393Z,6.57
2018-03-11T14:09:26.498Z,11.57
2018-03-11T14:14:24.801Z,10.50
2018-03-11T14:19:23.188Z,5.07
2018-03-11T14:24:21.610Z,5.07
2018-03-11T14:29:19.333Z,6.10
2018-03-11T14:34:16.365Z,8.33
2018-03-11T14:39:13.537Z,11.73
2018-03-11T14:44:10.694Z,7.63
2018-03-11T14:49:07.814Z,11.87
2018-03-11T14:54:05.078Z,6.43
2018-03-11T14:59:03.324Z,9.90
2018-03-11T15:04:00.544Z,10.73
2018-03-11T15:08:57.956Z,8.53
2018-03-11T15:13:55.334Z,7.17
2018-03-11T15:18:56.289Z,6.43
2018-03-11T15:23:53.568Z,9.67
2018-03-11T15:28:54.430Z,10.23
2018-03-11T15:33:51.741Z,13.57
2018-03-11T15:38:52.114Z,8.63
2018-03-11T15:43:49.278Z,11.80
2018-03-11T15:48:47.382Z,17.70
2018-03-11T15:53:44.761Z,20.93
2018-03-11T15:58:41.995Z,15.33
2018-03-11T16:03:40.027Z,19.87
2018-03-11T16:08:39.646Z,15.50
2018-03-11T16:13:37.001Z,21.23
2018-03-11T16:18:37.509Z,42.57
2018-03-11T16:23:34.767Z,35.67
2018-03-11T16:28:35.481Z,26.23
2018-03-11T16:33:32.658Z,38.60
2018-03-11T16:38:33.846Z,29.20
2018-03-11T16:43:31.174Z,36.43
2018-03-11T16:48:31.952Z,34.27
2018-03-11T16:53:29.270Z,39.33
2018-03-11T16:58:29.699Z,41.27
2018-03-11T17:03:27.018Z,26.73
2018-03-11T17:08:25.408Z,28.33
2018-03-11T17:13:22.797Z,28.37
2018-03-11T17:18:20.016Z,27.53
2018-03-11T17:23:17.284Z,27.03
2018-03-11T17:28:14.553Z,34.30
2018-03-11T17:33:11.770Z,65.20
2018-03-11T17:38:12.642Z,30.17
2018-03-11T17:43:09.871Z,17.10
2018-03-11T17:48:07.197Z,38.80
2018-03-11T17:53:04.323Z,17.13
2018-03-11T17:58:02.774Z,20.37
2018-03-11T18:03:00.023Z,22.57
2018-03-11T18:07:58.452Z,26.53
2018-03-11T18:12:55.743Z,26.67
2018-03-11T18:17:56.526Z,18.33
2018-03-11T18:22:53.891Z,12.63
2018-03-11T18:27:52.146Z,11.20
2018-03-11T18:32:49.514Z,21.27
2018-03-11T18:37:48.404Z,27.47
2018-03-11T18:42:45.822Z,36.80
2018-03-11T18:47:47.197Z,17.23
2018-03-11T18:52:45.006Z,25.73
2018-03-11T18:57:43.632Z,12.47
2018-03-11T19:02:41.503Z,73.67
2018-03-11T19:07:40.126Z,39.80
2018-03-11T19:12:37.298Z,12.03
2018-03-11T19:17:38.101Z,20.07
2018-03-11T19:22:35.402Z,16.07
2018-03-11T19:27:37.675Z,54.60
2018-03-11T19:32:34.834Z,28.33
2018-03-11T19:37:33.218Z,11.20
2018-03-11T19:42:30.593Z,9.97
2018-03-11T19:47:34.186Z,11.43
2018-03-11T19:52:31.311Z,12.80
2018-03-11T19:57:32.399Z,11.43
2018-03-11T20:02:29.715Z,13.67
2018-03-11T20:07:33.091Z,12.50
2018-03-11T20:12:30.396Z,10.37
2018-03-11T20:17:31.135Z,24.17
2018-03-11T20:22:28.553Z,35.90
2018-03-11T20:27:31.001Z,24.27
2018-03-11T20:32:28.350Z,34.57
2018-03-11T20:37:28.967Z,15.63
2018-03-11T20:42:26.327Z,12.97
2018-03-11T20:47:24.772Z,22.03
2018-03-11T20:52:21.985Z,15.93
2018-03-11T20:57:22.846Z,8.90
2018-03-11T21:02:20.145Z,14.87
2018-03-11T21:07:17.382Z,9.10
2018-03-11T21:12:15.010Z,10.37
2018-03-11T21:17:15.679Z,23.67
2018-03-11T21:22:13.272Z,10.87
2018-03-11T21:27:11.534Z,7.50
2018-03-11T21:32:08.666Z,6.83
2018-03-11T21:37:09.158Z,6.93
2018-03-11T21:42:06.395Z,6.10
2018-03-11T21:47:06.916Z,10.80
2018-03-11T21:52:04.680Z,12.23
2018-03-11T21:57:02.870Z,17.70
2018-03-11T22:01:59.993Z,8.93
2018-03-11T22:06:58.428Z,5.00
2018-03-11T22:11:55.735Z,7.07
2018-03-11T22:17:00.225Z,11.47
2018-03-11T22:21:58.014Z,12.63
2018-03-11T22:26:59.324Z,13.97
2018-03-11T22:31:56.527Z,11.10
2018-03-11T22:36:57.062Z,13.23
2018-03-11T22:41:54.994Z,14.97
2018-03-11T22:46:56.014Z,9.63
2018-03-11T22:51:53.249Z,7.10
2018-03-11T22:56:51.554Z,10.10
2018-03-11T23:01:48.933Z,10.40
2018-03-11T23:06:52.126Z,10.70
2018-03-11T23:11:49.197Z,10.80
2018-03-11T23:16:47.508Z,6.73
2018-03-11T23:21:44.797Z,8.90
2018-03-11T23:26:42.949Z,6.33
2018-03-11T23:31:39.930Z,6.43
2018-03-11T23:36:40.748Z,7.43
2018-03-11T23:41:38.769Z,7.03
2018-03-11T23:46:39.893Z,6.70
2018-03-11T23:51:37.219Z,5.70
2018-03-11T23:56:38.017Z,5.50
